sensor_id;sensor_type;location;lat;lon;timestamp;temperature;humidity
4081;DHT22;2055;50.074;8.436;2023-05-02T00:00:08;12.50;99.90
4081;DHT22;2055;50.074;8.436;2023-05-02T00:02:33;12.40;99.90
4081;DHT22;2055;50.074;8.436;2023-05-02T00:04:59;12.30;99.90
4081;DHT22;2055;50.074;8.436;2023-05-02T00:07:25;12.20;99.90
4081;DHT22;2055;50.074;8.436;2023-05-02T00:09:51;12.10;99.90
4081;DHT22;2055;50.074;8.436;2023-05-02T00:12:16;12.20;99.90
4081;DHT22;2055;50.074;8.436;2023-05-02T00:14:42;12.20;99.90
4081;DHT22;2055;50.074;8.436;2023-05-02T00:17:08;12.10;99.90
4081;DHT22;2055;50.074;8.436;2023-05-02T00:19:37;11.90;99.90
4081;DHT22;2055;50.074;8.436;2023-05-02T00:22:04;11.80;99.90
4081;DHT22;2055;50.074;8.436;2023-05-02T00:24:29;11.60;99.90
4081;DHT22;2055;50.074;8.436;2023-05-02T00:26:55;11.30;99.90
4081;DHT22;2055;50.074;8.436;2023-05-02T00:29:21;11.40;99.90
4081;DHT22;2055;50.074;8.436;2023-05-02T00:31:46;11.20;99.90
4081;DHT22;2055;50.074;8.436;2023-05-02T00:34:12;11.20;99.90
4081;DHT22;2055;50.074;8.436;2023-05-02T00:36:37;11.30;99.90
4081;DHT22;2055;50.074;8.436;2023-05-02T00:39:03;11.20;99.90
4081;DHT22;2055;50.074;8.436;2023-05-02T00:41:29;11.10;99.90
4081;DHT22;2055;50.074;8.436;2023-05-02T00:43:55;11.10;99.90
4081;DHT22;2055;50.074;8.436;2023-05-02T00:46:20;10.90;99.90
4081;DHT22;2055;50.074;8.436;2023-05-02T00:48:46;10.90;99.90
4081;DHT22;2055;50.074;8.436;2023-05-02T00:51:12;11.00;99.90
4081;DHT22;2055;50.074;8.436;2023-05-02T00:53:38;11.10;99.90
4081;DHT22;2055;50.074;8.436;2023-05-02T00:56:04;11.10;99.90
4081;DHT22;2055;50.074;8.436;2023-05-02T00:58:30;11.00;99.90
4081;DHT22;2055;50.074;8.436;2023-05-02T01:04:03;11.10;99.90
4081;DHT22;2055;50.074;8.436;2023-05-02T01:14:49;11.10;99.90
4081;DHT22;2055;50.074;8.436;2023-05-02T01:17:16;11.10;99.90
4081;DHT22;2055;50.074;8.436;2023-05-02T01:19:48;11.00;99.90
4081;DHT22;2055;50.074;8.436;2023-05-02T01:22:15;11.00;99.90
4081;DHT22;2055;50.074;8.436;2023-05-02T01:25:19;10.90;99.90
4081;DHT22;2055;50.074;8.436;2023-05-02T01:30:41;11.00;99.90
4081;DHT22;2055;50.074;8.436;2023-05-02T01:33:10;11.00;99.90
4081;DHT22;2055;50.074;8.436;2023-05-02T01:35:38;11.10;99.90
4081;DHT22;2055;50.074;8.436;2023-05-02T01:38:05;11.30;99.90
4081;DHT22;2055;50.074;8.436;2023-05-02T01:40:32;11.50;99.90
4081;DHT22;2055;50.074;8.436;2023-05-02T01:42:58;11.60;99.90
4081;DHT22;2055;50.074;8.436;2023-05-02T01:45:26;11.60;99.90
4081;DHT22;2055;50.074;8.436;2023-05-02T01:47:53;11.70;99.90
4081;DHT22;2055;50.074;8.436;2023-05-02T01:50:22;11.70;99.90
4081;DHT22;2055;50.074;8.436;2023-05-02T01:52:51;11.90;99.90
4081;DHT22;2055;50.074;8.436;2023-05-02T01:55:17;11.90;99.90
4081;DHT22;2055;50.074;8.436;2023-05-02T01:57:46;11.90;99.90
4081;DHT22;2055;50.074;8.436;2023-05-02T02:00:12;11.90;99.90
4081;DHT22;2055;50.074;8.436;2023-05-02T02:02:41;11.80;99.90
4081;DHT22;2055;50.074;8.436;2023-05-02T02:05:08;11.80;99.90
4081;DHT22;2055;50.074;8.436;2023-05-02T02:07:35;11.80;99.90
4081;DHT22;2055;50.074;8.436;2023-05-02T02:10:00;11.80;99.90
4081;DHT22;2055;50.074;8.436;2023-05-02T02:12:30;11.70;99.90
4081;DHT22;2055;50.074;8.436;2023-05-02T02:15:05;11.70;99.90
4081;DHT22;2055;50.074;8.436;2023-05-02T02:17:37;11.70;99.90
4081;DHT22;2055;50.074;8.436;2023-05-02T02:20:06;11.80;99.90
4081;DHT22;2055;50.074;8.436;2023-05-02T02:22:37;11.70;99.90
4081;DHT22;2055;50.074;8.436;2023-05-02T02:25:05;11.70;99.90
4081;DHT22;2055;50.074;8.436;2023-05-02T02:27:32;11.60;99.90
4081;DHT22;2055;50.074;8.436;2023-05-02T02:29:58;11.60;99.90
4081;DHT22;2055;50.074;8.436;2023-05-02T02:32:23;11.50;99.90
4081;DHT22;2055;50.074;8.436;2023-05-02T02:34:49;11.50;99.90
4081;DHT22;2055;50.074;8.436;2023-05-02T02:37:19;11.50;99.90
4081;DHT22;2055;50.074;8.436;2023-05-02T02:42:59;11.20;99.90
4081;DHT22;2055;50.074;8.436;2023-05-02T02:48:18;11.10;99.90
4081;DHT22;2055;50.074;8.436;2023-05-02T02:51:18;11.10;99.90
4081;DHT22;2055;50.074;8.436;2023-05-02T02:53:59;11.00;99.90
4081;DHT22;2055;50.074;8.436;2023-05-02T02:56:29;10.90;99.90
4081;DHT22;2055;50.074;8.436;2023-05-02T02:59:22;10.90;99.90
4081;DHT22;2055;50.074;8.436;2023-05-02T03:02:11;10.80;99.90
4081;DHT22;2055;50.074;8.436;2023-05-02T03:04:40;10.80;99.90
4081;DHT22;2055;50.074;8.436;2023-05-02T03:07:09;10.80;99.90
4081;DHT22;2055;50.074;8.436;2023-05-02T03:09:45;10.70;99.90
4081;DHT22;2055;50.074;8.436;2023-05-02T03:12:11;10.60;99.90
4081;DHT22;2055;50.074;8.436;2023-05-02T03:14:37;10.60;99.90
4081;DHT22;2055;50.074;8.436;2023-05-02T03:17:03;10.60;99.90
4081;DHT22;2055;50.074;8.436;2023-05-02T03:19:29;10.50;99.90
4081;DHT22;2055;50.074;8.436;2023-05-02T03:21:54;10.50;99.90
4081;DHT22;2055;50.074;8.436;2023-05-02T03:24:20;10.50;99.90
4081;DHT22;2055;50.074;8.436;2023-05-02T03:26:46;10.60;99.90
4081;DHT22;2055;50.074;8.436;2023-05-02T03:29:15;10.70;99.90
4081;DHT22;2055;50.074;8.436;2023-05-02T03:31:41;10.80;99.90
4081;DHT22;2055;50.074;8.436;2023-05-02T03:34:06;10.80;99.90
4081;DHT22;2055;50.074;8.436;2023-05-02T03:36:31;10.80;99.90
4081;DHT22;2055;50.074;8.436;2023-05-02T03:38:57;10.80;99.90
4081;DHT22;2055;50.074;8.436;2023-05-02T03:41:23;10.90;99.90
4081;DHT22;2055;50.074;8.436;2023-05-02T03:43:51;10.90;99.90
4081;DHT22;2055;50.074;8.436;2023-05-02T03:46:17;11.00;99.90
4081;DHT22;2055;50.074;8.436;2023-05-02T03:48:42;11.00;99.90
4081;DHT22;2055;50.074;8.436;2023-05-02T03:51:10;11.00;99.90
4081;DHT22;2055;50.074;8.436;2023-05-02T03:53:36;10.90;99.90
4081;DHT22;2055;50.074;8.436;2023-05-02T03:56:02;10.90;99.90
4081;DHT22;2055;50.074;8.436;2023-05-02T03:58:27;10.90;99.90
4081;DHT22;2055;50.074;8.436;2023-05-02T04:00:53;10.90;99.90
4081;DHT22;2055;50.074;8.436;2023-05-02T04:03:20;10.90;99.90
4081;DHT22;2055;50.074;8.436;2023-05-02T04:05:45;10.80;99.90
4081;DHT22;2055;50.074;8.436;2023-05-02T04:08:12;10.80;99.90
4081;DHT22;2055;50.074;8.436;2023-05-02T04:10:38;10.80;99.90
4081;DHT22;2055;50.074;8.436;2023-05-02T04:13:03;10.90;99.90
4081;DHT22;2055;50.074;8.436;2023-05-02T04:15:30;10.90;99.90
4081;DHT22;2055;50.074;8.436;2023-05-02T04:17:57;10.90;99.90
4081;DHT22;2055;50.074;8.436;2023-05-02T04:20:23;10.80;99.90
4081;DHT22;2055;50.074;8.436;2023-05-02T04:22:48;10.80;99.90
4081;DHT22;2055;50.074;8.436;2023-05-02T04:25:15;10.70;99.90
4081;DHT22;2055;50.074;8.436;2023-05-02T04:27:40;10.70;99.90
4081;DHT22;2055;50.074;8.436;2023-05-02T04:30:06;10.70;99.90
4081;DHT22;2055;50.074;8.436;2023-05-02T04:32:32;10.70;99.90
4081;DHT22;2055;50.074;8.436;2023-05-02T04:34:58;10.80;99.90
4081;DHT22;2055;50.074;8.436;2023-05-02T04:37:24;10.80;99.90
4081;DHT22;2055;50.074;8.436;2023-05-02T04:39:50;10.80;99.90
4081;DHT22;2055;50.074;8.436;2023-05-02T04:42:15;10.80;99.90
4081;DHT22;2055;50.074;8.436;2023-05-02T04:44:41;10.90;99.90
4081;DHT22;2055;50.074;8.436;2023-05-02T04:47:06;10.90;99.90
4081;DHT22;2055;50.074;8.436;2023-05-02T04:49:32;11.00;99.90
4081;DHT22;2055;50.074;8.436;2023-05-02T04:51:58;11.00;99.90
4081;DHT22;2055;50.074;8.436;2023-05-02T04:54:23;11.10;99.90
4081;DHT22;2055;50.074;8.436;2023-05-02T04:56:49;11.20;99.90
4081;DHT22;2055;50.074;8.436;2023-05-02T04:59:14;11.20;99.90
4081;DHT22;2055;50.074;8.436;2023-05-02T05:01:40;11.20;99.90
4081;DHT22;2055;50.074;8.436;2023-05-02T05:04:05;11.30;99.90
4081;DHT22;2055;50.074;8.436;2023-05-02T05:06:31;11.30;99.90
4081;DHT22;2055;50.074;8.436;2023-05-02T05:08:56;11.40;99.90
4081;DHT22;2055;50.074;8.436;2023-05-02T05:11:22;11.40;99.90
4081;DHT22;2055;50.074;8.436;2023-05-02T05:13:48;11.40;99.90
4081;DHT22;2055;50.074;8.436;2023-05-02T05:16:13;11.50;99.90
4081;DHT22;2055;50.074;8.436;2023-05-02T05:18:39;11.40;99.90
4081;DHT22;2055;50.074;8.436;2023-05-02T05:21:08;11.50;99.90
4081;DHT22;2055;50.074;8.436;2023-05-02T05:23:35;11.30;99.90
4081;DHT22;2055;50.074;8.436;2023-05-02T05:26:16;11.50;99.90
4081;DHT22;2055;50.074;8.436;2023-05-02T05:28:42;11.70;99.90
4081;DHT22;2055;50.074;8.436;2023-05-02T05:31:12;11.60;99.90
4081;DHT22;2055;50.074;8.436;2023-05-02T05:33:39;11.50;99.90
4081;DHT22;2055;50.074;8.436;2023-05-02T05:36:06;11.70;99.90
4081;DHT22;2055;50.074;8.436;2023-05-02T05:38:32;11.70;99.90
4081;DHT22;2055;50.074;8.436;2023-05-02T05:40:58;11.80;99.90
4081;DHT22;2055;50.074;8.436;2023-05-02T05:43:24;11.90;99.90
4081;DHT22;2055;50.074;8.436;2023-05-02T05:45:51;11.90;99.90
4081;DHT22;2055;50.074;8.436;2023-05-02T05:48:17;12.00;99.90
4081;DHT22;2055;50.074;8.436;2023-05-02T05:50:43;12.00;99.90
4081;DHT22;2055;50.074;8.436;2023-05-02T05:53:08;12.00;99.90
4081;DHT22;2055;50.074;8.436;2023-05-02T05:55:34;12.00;99.90
4081;DHT22;2055;50.074;8.436;2023-05-02T05:57:59;11.90;99.90
4081;DHT22;2055;50.074;8.436;2023-05-02T06:00:25;12.00;99.90
4081;DHT22;2055;50.074;8.436;2023-05-02T06:02:51;12.10;99.90
4081;DHT22;2055;50.074;8.436;2023-05-02T06:05:16;12.20;99.90
4081;DHT22;2055;50.074;8.436;2023-05-02T06:07:42;12.00;99.90
4081;DHT22;2055;50.074;8.436;2023-05-02T06:10:08;12.10;99.90
4081;DHT22;2055;50.074;8.436;2023-05-02T06:12:34;12.20;99.90
4081;DHT22;2055;50.074;8.436;2023-05-02T06:15:00;12.80;99.90
4081;DHT22;2055;50.074;8.436;2023-05-02T06:17:26;12.40;99.90
4081;DHT22;2055;50.074;8.436;2023-05-02T06:19:51;12.50;99.90
4081;DHT22;2055;50.074;8.436;2023-05-02T06:22:17;12.90;99.90
4081;DHT22;2055;50.074;8.436;2023-05-02T06:24:42;12.90;99.90
4081;DHT22;2055;50.074;8.436;2023-05-02T06:27:08;13.00;99.90
4081;DHT22;2055;50.074;8.436;2023-05-02T06:29:33;13.20;99.90
4081;DHT22;2055;50.074;8.436;2023-05-02T06:31:59;13.10;99.90
4081;DHT22;2055;50.074;8.436;2023-05-02T06:34:24;13.00;99.90
4081;DHT22;2055;50.074;8.436;2023-05-02T06:36:54;13.00;99.90
4081;DHT22;2055;50.074;8.436;2023-05-02T06:39:20;13.10;99.90
4081;DHT22;2055;50.074;8.436;2023-05-02T06:41:46;13.10;99.90
4081;DHT22;2055;50.074;8.436;2023-05-02T06:44:12;13.40;99.90
4081;DHT22;2055;50.074;8.436;2023-05-02T06:46:38;13.50;99.90
4081;DHT22;2055;50.074;8.436;2023-05-02T06:49:04;13.50;99.90
4081;DHT22;2055;50.074;8.436;2023-05-02T06:51:29;13.20;99.90
4081;DHT22;2055;50.074;8.436;2023-05-02T06:53:56;13.40;99.90
4081;DHT22;2055;50.074;8.436;2023-05-02T06:56:22;13.60;99.90
4081;DHT22;2055;50.074;8.436;2023-05-02T06:58:50;13.70;99.90
4081;DHT22;2055;50.074;8.436;2023-05-02T07:01:15;13.70;99.90
4081;DHT22;2055;50.074;8.436;2023-05-02T07:03:41;13.80;99.90
4081;DHT22;2055;50.074;8.436;2023-05-02T07:06:06;13.60;99.90
4081;DHT22;2055;50.074;8.436;2023-05-02T07:08:32;13.50;99.90
4081;DHT22;2055;50.074;8.436;2023-05-02T07:10:57;13.50;99.90
4081;DHT22;2055;50.074;8.436;2023-05-02T07:13:23;13.50;99.90
4081;DHT22;2055;50.074;8.436;2023-05-02T07:15:48;13.50;99.90
4081;DHT22;2055;50.074;8.436;2023-05-02T07:18:14;13.60;99.90
4081;DHT22;2055;50.074;8.436;2023-05-02T07:20:39;13.50;99.90
4081;DHT22;2055;50.074;8.436;2023-05-02T07:23:06;13.60;99.90
4081;DHT22;2055;50.074;8.436;2023-05-02T07:25:33;13.70;99.90
4081;DHT22;2055;50.074;8.436;2023-05-02T07:27:59;13.70;99.90
4081;DHT22;2055;50.074;8.436;2023-05-02T07:30:24;13.80;99.90
4081;DHT22;2055;50.074;8.436;2023-05-02T07:32:50;13.90;99.90
4081;DHT22;2055;50.074;8.436;2023-05-02T07:35:16;14.10;99.90
4081;DHT22;2055;50.074;8.436;2023-05-02T07:37:41;14.10;99.90
4081;DHT22;2055;50.074;8.436;2023-05-02T07:40:07;14.10;99.90
4081;DHT22;2055;50.074;8.436;2023-05-02T07:42:34;13.60;99.90
4081;DHT22;2055;50.074;8.436;2023-05-02T07:45:00;13.90;99.90
4081;DHT22;2055;50.074;8.436;2023-05-02T07:47:26;14.30;99.90
4081;DHT22;2055;50.074;8.436;2023-05-02T07:49:53;14.50;99.90
4081;DHT22;2055;50.074;8.436;2023-05-02T07:52:19;14.40;99.90
4081;DHT22;2055;50.074;8.436;2023-05-02T07:54:46;14.30;99.90
4081;DHT22;2055;50.074;8.436;2023-05-02T07:57:12;14.20;99.90
4081;DHT22;2055;50.074;8.436;2023-05-02T07:59:37;14.10;99.90
4081;DHT22;2055;50.074;8.436;2023-05-02T08:02:03;13.80;99.90
4081;DHT22;2055;50.074;8.436;2023-05-02T08:04:29;13.70;99.90
4081;DHT22;2055;50.074;8.436;2023-05-02T08:06:54;13.70;99.90
4081;DHT22;2055;50.074;8.436;2023-05-02T08:09:21;13.50;99.90
4081;DHT22;2055;50.074;8.436;2023-05-02T08:11:47;13.50;99.90
4081;DHT22;2055;50.074;8.436;2023-05-02T08:14:13;13.70;99.90
4081;DHT22;2055;50.074;8.436;2023-05-02T08:16:39;13.80;99.90
4081;DHT22;2055;50.074;8.436;2023-05-02T08:19:04;13.80;99.90
4081;DHT22;2055;50.074;8.436;2023-05-02T08:21:30;13.90;99.90
4081;DHT22;2055;50.074;8.436;2023-05-02T08:23:57;14.00;99.90
4081;DHT22;2055;50.074;8.436;2023-05-02T08:26:23;14.00;99.90
4081;DHT22;2055;50.074;8.436;2023-05-02T08:28:51;14.30;99.90
4081;DHT22;2055;50.074;8.436;2023-05-02T08:31:17;14.30;99.90
4081;DHT22;2055;50.074;8.436;2023-05-02T08:33:43;14.20;99.90
4081;DHT22;2055;50.074;8.436;2023-05-02T08:36:10;14.00;99.90
4081;DHT22;2055;50.074;8.436;2023-05-02T08:38:36;13.80;99.90
4081;DHT22;2055;50.074;8.436;2023-05-02T08:41:02;13.80;99.90
4081;DHT22;2055;50.074;8.436;2023-05-02T08:43:28;13.70;99.90
4081;DHT22;2055;50.074;8.436;2023-05-02T08:45:58;13.60;99.90
4081;DHT22;2055;50.074;8.436;2023-05-02T08:48:26;13.50;99.90
4081;DHT22;2055;50.074;8.436;2023-05-02T08:50:53;14.00;99.90
4081;DHT22;2055;50.074;8.436;2023-05-02T08:53:20;14.40;99.90
4081;DHT22;2055;50.074;8.436;2023-05-02T08:55:45;14.70;99.90
4081;DHT22;2055;50.074;8.436;2023-05-02T08:58:13;14.50;99.90
4081;DHT22;2055;50.074;8.436;2023-05-02T09:00:40;15.00;99.90
4081;DHT22;2055;50.074;8.436;2023-05-02T09:05:45;15.50;99.90
4081;DHT22;2055;50.074;8.436;2023-05-02T09:08:10;15.30;99.90
4081;DHT22;2055;50.074;8.436;2023-05-02T09:10:36;16.00;99.90
4081;DHT22;2055;50.074;8.436;2023-05-02T09:13:37;16.40;99.90
4081;DHT22;2055;50.074;8.436;2023-05-02T09:16:05;16.70;99.90
4081;DHT22;2055;50.074;8.436;2023-05-02T09:18:35;16.90;99.90
4081;DHT22;2055;50.074;8.436;2023-05-02T09:21:06;16.80;99.90
4081;DHT22;2055;50.074;8.436;2023-05-02T09:23:47;16.30;99.90
4081;DHT22;2055;50.074;8.436;2023-05-02T09:26:14;15.80;99.90
4081;DHT22;2055;50.074;8.436;2023-05-02T09:28:45;16.20;99.90
4081;DHT22;2055;50.074;8.436;2023-05-02T09:31:16;15.80;99.90
4081;DHT22;2055;50.074;8.436;2023-05-02T09:33:43;16.00;99.90
4081;DHT22;2055;50.074;8.436;2023-05-02T09:36:14;16.30;99.90
4081;DHT22;2055;50.074;8.436;2023-05-02T09:38:41;16.30;99.90
4081;DHT22;2055;50.074;8.436;2023-05-02T09:41:07;15.80;99.90
4081;DHT22;2055;50.074;8.436;2023-05-02T09:43:33;15.90;99.90
4081;DHT22;2055;50.074;8.436;2023-05-02T09:46:10;15.80;99.90
4081;DHT22;2055;50.074;8.436;2023-05-02T09:49:08;15.70;99.90
4081;DHT22;2055;50.074;8.436;2023-05-02T09:51:36;15.60;99.90
4081;DHT22;2055;50.074;8.436;2023-05-02T09:54:02;15.80;99.90
4081;DHT22;2055;50.074;8.436;2023-05-02T09:56:28;16.10;99.90
4081;DHT22;2055;50.074;8.436;2023-05-02T09:59:14;16.00;99.90
4081;DHT22;2055;50.074;8.436;2023-05-02T10:01:40;16.20;99.90
4081;DHT22;2055;50.074;8.436;2023-05-02T10:04:12;16.90;99.90
4081;DHT22;2055;50.074;8.436;2023-05-02T10:06:43;17.40;99.90
4081;DHT22;2055;50.074;8.436;2023-05-02T10:09:09;17.20;99.90
4081;DHT22;2055;50.074;8.436;2023-05-02T10:11:38;17.30;99.90
4081;DHT22;2055;50.074;8.436;2023-05-02T10:14:05;17.00;99.90
4081;DHT22;2055;50.074;8.436;2023-05-02T10:16:46;16.80;99.90
4081;DHT22;2055;50.074;8.436;2023-05-02T10:19:22;16.70;99.90
4081;DHT22;2055;50.074;8.436;2023-05-02T10:21:48;16.50;99.90
4081;DHT22;2055;50.074;8.436;2023-05-02T10:24:15;16.30;99.90
4081;DHT22;2055;50.074;8.436;2023-05-02T10:26:42;16.50;99.90
4081;DHT22;2055;50.074;8.436;2023-05-02T10:29:07;16.30;99.90
4081;DHT22;2055;50.074;8.436;2023-05-02T10:31:33;16.40;99.90
4081;DHT22;2055;50.074;8.436;2023-05-02T10:34:00;16.50;99.90
4081;DHT22;2055;50.074;8.436;2023-05-02T10:36:27;17.10;99.90
4081;DHT22;2055;50.074;8.436;2023-05-02T10:38:53;16.90;99.90
4081;DHT22;2055;50.074;8.436;2023-05-02T10:41:22;16.30;99.90
4081;DHT22;2055;50.074;8.436;2023-05-02T10:43:49;16.00;99.90
4081;DHT22;2055;50.074;8.436;2023-05-02T10:49:02;16.80;99.90
4081;DHT22;2055;50.074;8.436;2023-05-02T10:51:29;17.70;99.90
4081;DHT22;2055;50.074;8.436;2023-05-02T10:57:03;19.60;99.90
4081;DHT22;2055;50.074;8.436;2023-05-02T10:59:37;19.10;99.90
4081;DHT22;2055;50.074;8.436;2023-05-02T11:02:04;19.70;99.90
4081;DHT22;2055;50.074;8.436;2023-05-02T11:05:07;19.30;99.90
4081;DHT22;2055;50.074;8.436;2023-05-02T11:07:34;18.20;99.90
4081;DHT22;2055;50.074;8.436;2023-05-02T11:12:51;19.10;99.90
4081;DHT22;2055;50.074;8.436;2023-05-02T11:18:07;20.20;99.90
4081;DHT22;2055;50.074;8.436;2023-05-02T11:20:40;20.30;99.90
4081;DHT22;2055;50.074;8.436;2023-05-02T11:25:45;20.40;99.90
4081;DHT22;2055;50.074;8.436;2023-05-02T11:31:06;20.50;99.90
4081;DHT22;2055;50.074;8.436;2023-05-02T11:33:32;19.80;99.90
4081;DHT22;2055;50.074;8.436;2023-05-02T11:35:58;19.20;99.90
4081;DHT22;2055;50.074;8.436;2023-05-02T11:38:25;18.50;99.90
4081;DHT22;2055;50.074;8.436;2023-05-02T11:40:58;18.20;99.90
4081;DHT22;2055;50.074;8.436;2023-05-02T11:43:26;18.10;99.90
4081;DHT22;2055;50.074;8.436;2023-05-02T11:45:53;17.50;99.90
4081;DHT22;2055;50.074;8.436;2023-05-02T11:48:21;18.00;99.90
4081;DHT22;2055;50.074;8.436;2023-05-02T11:53:15;19.70;99.90
4081;DHT22;2055;50.074;8.436;2023-05-02T11:55:51;18.90;99.90
4081;DHT22;2055;50.074;8.436;2023-05-02T11:58:19;19.30;99.90
4081;DHT22;2055;50.074;8.436;2023-05-02T12:00:46;19.60;99.90
4081;DHT22;2055;50.074;8.436;2023-05-02T12:05:53;18.10;99.90
4081;DHT22;2055;50.074;8.436;2023-05-02T12:08:26;17.10;99.90
4081;DHT22;2055;50.074;8.436;2023-05-02T12:10:54;16.80;99.90
4081;DHT22;2055;50.074;8.436;2023-05-02T12:13:21;16.50;99.90
4081;DHT22;2055;50.074;8.436;2023-05-02T12:15:47;16.70;99.90
4081;DHT22;2055;50.074;8.436;2023-05-02T12:18:13;16.30;99.90
4081;DHT22;2055;50.074;8.436;2023-05-02T12:20:39;16.50;99.90
4081;DHT22;2055;50.074;8.436;2023-05-02T12:23:05;16.80;99.90
4081;DHT22;2055;50.074;8.436;2023-05-02T12:25:36;17.10;99.90
4081;DHT22;2055;50.074;8.436;2023-05-02T12:28:02;17.70;99.90
4081;DHT22;2055;50.074;8.436;2023-05-02T12:30:29;17.70;99.90
4081;DHT22;2055;50.074;8.436;2023-05-02T12:32:59;18.40;99.90
4081;DHT22;2055;50.074;8.436;2023-05-02T12:35:29;19.70;99.90
4081;DHT22;2055;50.074;8.436;2023-05-02T12:38:13;19.60;99.90
4081;DHT22;2055;50.074;8.436;2023-05-02T12:40:46;19.10;99.90
4081;DHT22;2055;50.074;8.436;2023-05-02T12:43:12;18.70;99.90
4081;DHT22;2055;50.074;8.436;2023-05-02T12:45:37;18.00;99.90
4081;DHT22;2055;50.074;8.436;2023-05-02T12:48:23;18.90;99.90
4081;DHT22;2055;50.074;8.436;2023-05-02T12:50:49;20.10;99.90
4081;DHT22;2055;50.074;8.436;2023-05-02T12:53:15;20.40;99.90
4081;DHT22;2055;50.074;8.436;2023-05-02T12:55:41;20.30;99.90
4081;DHT22;2055;50.074;8.436;2023-05-02T12:58:08;20.50;99.90
4081;DHT22;2055;50.074;8.436;2023-05-02T13:00:39;20.80;99.90
4081;DHT22;2055;50.074;8.436;2023-05-02T13:03:05;21.00;99.90
4081;DHT22;2055;50.074;8.436;2023-05-02T13:05:31;20.90;99.90
4081;DHT22;2055;50.074;8.436;2023-05-02T13:07:58;20.40;99.90
4081;DHT22;2055;50.074;8.436;2023-05-02T13:10:24;20.50;99.90
4081;DHT22;2055;50.074;8.436;2023-05-02T13:12:51;20.30;99.90
4081;DHT22;2055;50.074;8.436;2023-05-02T13:15:17;18.30;99.90
4081;DHT22;2055;50.074;8.436;2023-05-02T13:17:43;19.30;99.90
4081;DHT22;2055;50.074;8.436;2023-05-02T13:20:09;18.70;99.90
4081;DHT22;2055;50.074;8.436;2023-05-02T13:22:35;19.60;99.90
4081;DHT22;2055;50.074;8.436;2023-05-02T13:25:04;20.40;99.90
4081;DHT22;2055;50.074;8.436;2023-05-02T13:27:31;20.70;99.90
4081;DHT22;2055;50.074;8.436;2023-05-02T13:29:58;20.80;99.90
4081;DHT22;2055;50.074;8.436;2023-05-02T13:32:24;20.70;99.90
4081;DHT22;2055;50.074;8.436;2023-05-02T13:34:50;20.20;99.90
4081;DHT22;2055;50.074;8.436;2023-05-02T13:37:15;20.40;99.90
4081;DHT22;2055;50.074;8.436;2023-05-02T13:39:41;20.90;99.90
4081;DHT22;2055;50.074;8.436;2023-05-02T13:42:06;20.90;99.90
4081;DHT22;2055;50.074;8.436;2023-05-02T13:44:32;20.30;99.90
4081;DHT22;2055;50.074;8.436;2023-05-02T13:46:57;21.40;99.90
4081;DHT22;2055;50.074;8.436;2023-05-02T13:49:23;20.80;99.90
4081;DHT22;2055;50.074;8.436;2023-05-02T13:51:49;19.90;99.90
4081;DHT22;2055;50.074;8.436;2023-05-02T13:54:15;20.00;99.90
4081;DHT22;2055;50.074;8.436;2023-05-02T13:56:41;20.40;99.90
4081;DHT22;2055;50.074;8.436;2023-05-02T13:59:07;20.50;99.90
4081;DHT22;2055;50.074;8.436;2023-05-02T14:01:33;19.90;99.90
4081;DHT22;2055;50.074;8.436;2023-05-02T14:03:59;20.10;99.90
4081;DHT22;2055;50.074;8.436;2023-05-02T14:06:25;20.30;99.90
4081;DHT22;2055;50.074;8.436;2023-05-02T14:08:50;20.50;99.90
4081;DHT22;2055;50.074;8.436;2023-05-02T14:11:16;20.40;99.90
4081;DHT22;2055;50.074;8.436;2023-05-02T14:13:42;20.10;99.90
4081;DHT22;2055;50.074;8.436;2023-05-02T14:16:07;20.20;99.90
4081;DHT22;2055;50.074;8.436;2023-05-02T14:18:33;19.20;99.90
4081;DHT22;2055;50.074;8.436;2023-05-02T14:20:58;19.50;99.90
4081;DHT22;2055;50.074;8.436;2023-05-02T14:23:27;19.40;99.90
4081;DHT22;2055;50.074;8.436;2023-05-02T14:25:53;19.50;99.90
4081;DHT22;2055;50.074;8.436;2023-05-02T14:28:19;20.30;99.90
4081;DHT22;2055;50.074;8.436;2023-05-02T14:30:46;20.80;99.90
4081;DHT22;2055;50.074;8.436;2023-05-02T14:33:12;20.90;99.90
4081;DHT22;2055;50.074;8.436;2023-05-02T14:35:38;20.90;99.90
4081;DHT22;2055;50.074;8.436;2023-05-02T14:38:03;21.20;99.90
4081;DHT22;2055;50.074;8.436;2023-05-02T14:40:29;21.00;99.90
4081;DHT22;2055;50.074;8.436;2023-05-02T14:42:54;21.30;99.90
4081;DHT22;2055;50.074;8.436;2023-05-02T14:45:20;21.20;99.90
4081;DHT22;2055;50.074;8.436;2023-05-02T14:47:45;20.80;99.90
4081;DHT22;2055;50.074;8.436;2023-05-02T14:50:11;19.30;99.90
4081;DHT22;2055;50.074;8.436;2023-05-02T14:52:37;19.90;99.90
4081;DHT22;2055;50.074;8.436;2023-05-02T14:55:02;19.80;99.90
4081;DHT22;2055;50.074;8.436;2023-05-02T14:57:28;20.80;99.90
4081;DHT22;2055;50.074;8.436;2023-05-02T14:59:54;20.90;99.90
4081;DHT22;2055;50.074;8.436;2023-05-02T15:02:19;21.20;99.90
4081;DHT22;2055;50.074;8.436;2023-05-02T15:04:45;21.40;99.90
4081;DHT22;2055;50.074;8.436;2023-05-02T15:07:11;19.40;99.90
4081;DHT22;2055;50.074;8.436;2023-05-02T15:09:36;19.00;99.90
4081;DHT22;2055;50.074;8.436;2023-05-02T15:12:02;19.40;99.90
4081;DHT22;2055;50.074;8.436;2023-05-02T15:14:28;20.20;99.90
4081;DHT22;2055;50.074;8.436;2023-05-02T15:16:53;19.60;99.90
4081;DHT22;2055;50.074;8.436;2023-05-02T15:19:19;19.40;99.90
4081;DHT22;2055;50.074;8.436;2023-05-02T15:21:47;19.10;99.90
4081;DHT22;2055;50.074;8.436;2023-05-02T15:24:14;19.30;99.90
4081;DHT22;2055;50.074;8.436;2023-05-02T15:26:40;19.00;99.90
4081;DHT22;2055;50.074;8.436;2023-05-02T15:29:05;18.40;99.90
4081;DHT22;2055;50.074;8.436;2023-05-02T15:31:31;18.90;99.90
4081;DHT22;2055;50.074;8.436;2023-05-02T15:33:58;18.50;99.90
4081;DHT22;2055;50.074;8.436;2023-05-02T15:36:27;19.60;99.90
4081;DHT22;2055;50.074;8.436;2023-05-02T15:38:54;19.40;99.90
4081;DHT22;2055;50.074;8.436;2023-05-02T15:41:20;20.30;99.90
4081;DHT22;2055;50.074;8.436;2023-05-02T15:43:45;20.10;99.90
4081;DHT22;2055;50.074;8.436;2023-05-02T15:46:11;20.30;99.90
4081;DHT22;2055;50.074;8.436;2023-05-02T15:48:36;20.30;99.90
4081;DHT22;2055;50.074;8.436;2023-05-02T15:51:02;20.40;99.90
4081;DHT22;2055;50.074;8.436;2023-05-02T15:53:29;19.70;99.90
4081;DHT22;2055;50.074;8.436;2023-05-02T15:55:55;19.00;99.90
4081;DHT22;2055;50.074;8.436;2023-05-02T15:58:20;20.20;99.90
4081;DHT22;2055;50.074;8.436;2023-05-02T16:00:46;20.00;99.90
4081;DHT22;2055;50.074;8.436;2023-05-02T16:03:12;20.50;99.90
4081;DHT22;2055;50.074;8.436;2023-05-02T16:05:38;20.40;99.90
4081;DHT22;2055;50.074;8.436;2023-05-02T16:08:04;20.90;99.90
4081;DHT22;2055;50.074;8.436;2023-05-02T16:10:30;20.30;99.90
4081;DHT22;2055;50.074;8.436;2023-05-02T16:12:56;19.90;99.90
4081;DHT22;2055;50.074;8.436;2023-05-02T16:15:22;20.00;99.90
4081;DHT22;2055;50.074;8.436;2023-05-02T16:17:50;19.90;99.90
4081;DHT22;2055;50.074;8.436;2023-05-02T16:20:16;19.80;99.90
4081;DHT22;2055;50.074;8.436;2023-05-02T16:22:43;20.40;99.90
4081;DHT22;2055;50.074;8.436;2023-05-02T16:25:12;18.90;99.90
4081;DHT22;2055;50.074;8.436;2023-05-02T16:27:38;18.80;99.90
4081;DHT22;2055;50.074;8.436;2023-05-02T16:30:06;19.20;99.90
4081;DHT22;2055;50.074;8.436;2023-05-02T16:32:34;19.70;99.90
4081;DHT22;2055;50.074;8.436;2023-05-02T16:35:03;19.60;99.90
4081;DHT22;2055;50.074;8.436;2023-05-02T16:37:37;19.10;99.90
4081;DHT22;2055;50.074;8.436;2023-05-02T16:40:09;19.00;99.90
4081;DHT22;2055;50.074;8.436;2023-05-02T16:42:36;19.30;99.90
4081;DHT22;2055;50.074;8.436;2023-05-02T16:45:03;18.70;99.90
4081;DHT22;2055;50.074;8.436;2023-05-02T16:47:29;18.10;99.90